METAR Data
IDs: Format: Raw Decoded Include TAF

Data at: 2013 UTC 18 Apr 2021

ZLXY 182000Z 02001MPS CAVOK 10/07 Q1012 NOSIG